sensor_id;sensor_type;location;lat;lon;timestamp;P1;durP1;ratioP1;P2;durP2;ratioP2
3841;SDS011;1936;47.074;15.336;2023-02-01T00:00:31;3.38;;;1.80;;
3841;SDS011;1936;47.074;15.336;2023-02-01T00:02:35;2.20;;;2.00;;
3841;SDS011;1936;47.074;15.336;2023-02-01T00:04:42;3.05;;;1.92;;
3841;SDS011;1936;47.074;15.336;2023-02-01T00:06:45;4.40;;;1.90;;
3841;SDS011;1936;47.074;15.336;2023-02-01T00:08:51;1.77;;;1.30;;
3841;SDS011;1936;47.074;15.336;2023-02-01T00:10:58;2.22;;;1.55;;
3841;SDS011;1936;47.074;15.336;2023-02-01T00:13:02;1.65;;;1.52;;
3841;SDS011;1936;47.074;15.336;2023-02-01T00:15:06;1.48;;;1.17;;
3841;SDS011;1936;47.074;15.336;2023-02-01T00:17:11;1.98;;;1.60;;
3841;SDS011;1936;47.074;15.336;2023-02-01T00:19:15;2.38;;;1.50;;
3841;SDS011;1936;47.074;15.336;2023-02-01T00:21:19;2.33;;;1.70;;
3841;SDS011;1936;47.074;15.336;2023-02-01T00:23:23;2.80;;;1.95;;
3841;SDS011;1936;47.074;15.336;2023-02-01T00:25:27;1.23;;;1.10;;
3841;SDS011;1936;47.074;15.336;2023-02-01T00:27:30;3.53;;;2.20;;
3841;SDS011;1936;47.074;15.336;2023-02-01T00:29:33;4.07;;;2.67;;
3841;SDS011;1936;47.074;15.336;2023-02-01T00:31:37;3.03;;;1.92;;
3841;SDS011;1936;47.074;15.336;2023-02-01T00:33:42;2.85;;;2.28;;
3841;SDS011;1936;47.074;15.336;2023-02-01T00:35:49;1.85;;;1.30;;
3841;SDS011;1936;47.074;15.336;2023-02-01T00:37:52;1.63;;;1.20;;
3841;SDS011;1936;47.074;15.336;2023-02-01T00:39:56;3.88;;;1.10;;
3841;SDS011;1936;47.074;15.336;2023-02-01T00:41:59;3.08;;;1.10;;
3841;SDS011;1936;47.074;15.336;2023-02-01T00:44:03;1.05;;;0.82;;
3841;SDS011;1936;47.074;15.336;2023-02-01T00:46:07;1.50;;;0.85;;
3841;SDS011;1936;47.074;15.336;2023-02-01T00:48:11;1.67;;;1.10;;
3841;SDS011;1936;47.074;15.336;2023-02-01T00:50:16;1.77;;;1.20;;
3841;SDS011;1936;47.074;15.336;2023-02-01T00:52:20;1.50;;;1.38;;
3841;SDS011;1936;47.074;15.336;2023-02-01T00:54:24;1.23;;;0.95;;
3841;SDS011;1936;47.074;15.336;2023-02-01T00:56:27;1.05;;;0.95;;
3841;SDS011;1936;47.074;15.336;2023-02-01T00:58:31;1.55;;;1.23;;
3841;SDS011;1936;47.074;15.336;2023-02-01T01:00:35;1.98;;;1.00;;
3841;SDS011;1936;47.074;15.336;2023-02-01T01:02:38;1.65;;;1.17;;
3841;SDS011;1936;47.074;15.336;2023-02-01T01:04:42;0.90;;;0.50;;
3841;SDS011;1936;47.074;15.336;2023-02-01T01:06:46;0.80;;;0.70;;
3841;SDS011;1936;47.074;15.336;2023-02-01T01:08:50;0.88;;;0.65;;
3841;SDS011;1936;47.074;15.336;2023-02-01T01:10:54;1.20;;;1.10;;
3841;SDS011;1936;47.074;15.336;2023-02-01T01:12:58;0.88;;;0.70;;
3841;SDS011;1936;47.074;15.336;2023-02-01T01:15:01;0.80;;;0.68;;
3841;SDS011;1936;47.074;15.336;2023-02-01T01:17:05;1.45;;;0.70;;
3841;SDS011;1936;47.074;15.336;2023-02-01T01:19:08;0.50;;;0.40;;
3841;SDS011;1936;47.074;15.336;2023-02-01T01:21:13;0.85;;;0.50;;
3841;SDS011;1936;47.074;15.336;2023-02-01T01:23:19;2.00;;;1.00;;
3841;SDS011;1936;47.074;15.336;2023-02-01T01:25:23;1.20;;;0.80;;
3841;SDS011;1936;47.074;15.336;2023-02-01T01:27:26;0.80;;;0.63;;
3841;SDS011;1936;47.074;15.336;2023-02-01T01:29:29;0.60;;;0.50;;
3841;SDS011;1936;47.074;15.336;2023-02-01T01:31:33;1.35;;;0.70;;
3841;SDS011;1936;47.074;15.336;2023-02-01T01:33:36;1.67;;;1.13;;
3841;SDS011;1936;47.074;15.336;2023-02-01T01:35:39;1.67;;;0.80;;
3841;SDS011;1936;47.074;15.336;2023-02-01T01:37:44;1.08;;;0.75;;
3841;SDS011;1936;47.074;15.336;2023-02-01T01:39:48;0.60;;;0.50;;
3841;SDS011;1936;47.074;15.336;2023-02-01T01:41:52;1.30;;;0.50;;
3841;SDS011;1936;47.074;15.336;2023-02-01T01:43:56;0.70;;;0.50;;
3841;SDS011;1936;47.074;15.336;2023-02-01T01:46:00;0.90;;;0.75;;
3841;SDS011;1936;47.074;15.336;2023-02-01T01:48:05;0.60;;;0.40;;
3841;SDS011;1936;47.074;15.336;2023-02-01T01:50:12;0.90;;;0.50;;
3841;SDS011;1936;47.074;15.336;2023-02-01T01:52:19;0.90;;;0.60;;
3841;SDS011;1936;47.074;15.336;2023-02-01T01:54:23;0.93;;;0.30;;
3841;SDS011;1936;47.074;15.336;2023-02-01T01:56:33;1.05;;;0.50;;
3841;SDS011;1936;47.074;15.336;2023-02-01T01:58:37;0.88;;;0.52;;
3841;SDS011;1936;47.074;15.336;2023-02-01T02:00:41;1.45;;;0.60;;
3841;SDS011;1936;47.074;15.336;2023-02-01T02:02:46;0.60;;;0.40;;
3841;SDS011;1936;47.074;15.336;2023-02-01T02:04:52;1.02;;;0.50;;
3841;SDS011;1936;47.074;15.336;2023-02-01T02:06:57;0.90;;;0.50;;
3841;SDS011;1936;47.074;15.336;2023-02-01T02:09:04;0.63;;;0.40;;
3841;SDS011;1936;47.074;15.336;2023-02-01T02:11:08;2.00;;;0.40;;
3841;SDS011;1936;47.074;15.336;2023-02-01T02:13:16;1.00;;;0.45;;
3841;SDS011;1936;47.074;15.336;2023-02-01T02:15:21;0.70;;;0.43;;
3841;SDS011;1936;47.074;15.336;2023-02-01T02:17:28;0.60;;;0.50;;
3841;SDS011;1936;47.074;15.336;2023-02-01T02:24:56;0.80;;;0.40;;
3841;SDS011;1936;47.074;15.336;2023-02-01T02:27:32;0.63;;;0.45;;
3841;SDS011;1936;47.074;15.336;2023-02-01T02:29:50;2.25;;;0.68;;
3841;SDS011;1936;47.074;15.336;2023-02-01T02:32:29;0.50;;;0.50;;
3841;SDS011;1936;47.074;15.336;2023-02-01T02:34:56;0.77;;;0.40;;
3841;SDS011;1936;47.074;15.336;2023-02-01T02:37:07;0.70;;;0.50;;
3841;SDS011;1936;47.074;15.336;2023-02-01T02:39:20;5.85;;;0.68;;
3841;SDS011;1936;47.074;15.336;2023-02-01T02:41:31;1.83;;;0.57;;
3841;SDS011;1936;47.074;15.336;2023-02-01T02:43:56;0.70;;;0.50;;
3841;SDS011;1936;47.074;15.336;2023-02-01T02:46:31;0.50;;;0.30;;
3841;SDS011;1936;47.074;15.336;2023-02-01T02:49:00;1.27;;;0.50;;
3841;SDS011;1936;47.074;15.336;2023-02-01T02:51:09;0.60;;;0.50;;
3841;SDS011;1936;47.074;15.336;2023-02-01T02:53:35;1.42;;;0.65;;
3841;SDS011;1936;47.074;15.336;2023-02-01T02:56:01;0.98;;;0.40;;
3841;SDS011;1936;47.074;15.336;2023-02-01T02:58:25;1.45;;;0.43;;
3841;SDS011;1936;47.074;15.336;2023-02-01T03:00:46;0.50;;;0.30;;
3841;SDS011;1936;47.074;15.336;2023-02-01T03:03:09;0.70;;;0.47;;
3841;SDS011;1936;47.074;15.336;2023-02-01T03:05:31;2.25;;;0.52;;
3841;SDS011;1936;47.074;15.336;2023-02-01T03:10:16;0.70;;;0.40;;
3841;SDS011;1936;47.074;15.336;2023-02-01T03:12:26;1.58;;;0.50;;
3841;SDS011;1936;47.074;15.336;2023-02-01T03:14:47;0.50;;;0.30;;
3841;SDS011;1936;47.074;15.336;2023-02-01T03:16:58;0.90;;;0.50;;
3841;SDS011;1936;47.074;15.336;2023-02-01T03:19:06;0.80;;;0.50;;
3841;SDS011;1936;47.074;15.336;2023-02-01T03:21:16;0.80;;;0.65;;
3841;SDS011;1936;47.074;15.336;2023-02-01T03:23:25;0.98;;;0.50;;
3841;SDS011;1936;47.074;15.336;2023-02-01T03:25:33;0.50;;;0.45;;
3841;SDS011;1936;47.074;15.336;2023-02-01T03:27:38;4.55;;;0.40;;
3841;SDS011;1936;47.074;15.336;2023-02-01T03:29:46;0.60;;;0.40;;
3841;SDS011;1936;47.074;15.336;2023-02-01T03:31:53;1.20;;;0.50;;
3841;SDS011;1936;47.074;15.336;2023-02-01T03:33:57;2.28;;;0.65;;
3841;SDS011;1936;47.074;15.336;2023-02-01T03:36:03;0.60;;;0.43;;
3841;SDS011;1936;47.074;15.336;2023-02-01T03:38:13;1.73;;;0.55;;
3841;SDS011;1936;47.074;15.336;2023-02-01T03:40:25;0.50;;;0.40;;
3841;SDS011;1936;47.074;15.336;2023-02-01T03:42:31;0.75;;;0.30;;
3841;SDS011;1936;47.074;15.336;2023-02-01T03:44:38;0.80;;;0.60;;
3841;SDS011;1936;47.074;15.336;2023-02-01T03:46:49;0.82;;;0.30;;
3841;SDS011;1936;47.074;15.336;2023-02-01T03:48:56;0.63;;;0.50;;
3841;SDS011;1936;47.074;15.336;2023-02-01T03:51:02;0.65;;;0.38;;
3841;SDS011;1936;47.074;15.336;2023-02-01T03:53:08;0.80;;;0.50;;
3841;SDS011;1936;47.074;15.336;2023-02-01T03:55:17;0.57;;;0.40;;
3841;SDS011;1936;47.074;15.336;2023-02-01T03:57:25;1.63;;;0.57;;
3841;SDS011;1936;47.074;15.336;2023-02-01T03:59:32;0.63;;;0.40;;
3841;SDS011;1936;47.074;15.336;2023-02-01T04:01:35;0.60;;;0.40;;
3841;SDS011;1936;47.074;15.336;2023-02-01T04:03:38;0.70;;;0.40;;
3841;SDS011;1936;47.074;15.336;2023-02-01T04:05:42;0.40;;;0.30;;
3841;SDS011;1936;47.074;15.336;2023-02-01T04:07:45;0.60;;;0.40;;
3841;SDS011;1936;47.074;15.336;2023-02-01T04:09:48;1.13;;;0.50;;
3841;SDS011;1936;47.074;15.336;2023-02-01T04:11:52;0.50;;;0.40;;
3841;SDS011;1936;47.074;15.336;2023-02-01T04:13:57;0.60;;;0.45;;
3841;SDS011;1936;47.074;15.336;2023-02-01T04:16:05;0.40;;;0.30;;
3841;SDS011;1936;47.074;15.336;2023-02-01T04:18:09;0.90;;;0.50;;
3841;SDS011;1936;47.074;15.336;2023-02-01T04:20:12;0.85;;;0.50;;
3841;SDS011;1936;47.074;15.336;2023-02-01T04:22:15;0.60;;;0.40;;
3841;SDS011;1936;47.074;15.336;2023-02-01T04:24:19;0.90;;;0.50;;
3841;SDS011;1936;47.074;15.336;2023-02-01T04:26:22;2.25;;;0.50;;
3841;SDS011;1936;47.074;15.336;2023-02-01T04:28:25;0.93;;;0.40;;
3841;SDS011;1936;47.074;15.336;2023-02-01T04:30:30;1.23;;;0.60;;
3841;SDS011;1936;47.074;15.336;2023-02-01T04:32:34;0.70;;;0.50;;
3841;SDS011;1936;47.074;15.336;2023-02-01T04:34:37;0.90;;;0.63;;
3841;SDS011;1936;47.074;15.336;2023-02-01T04:36:41;0.68;;;0.47;;
3841;SDS011;1936;47.074;15.336;2023-02-01T04:38:47;0.75;;;0.40;;
3841;SDS011;1936;47.074;15.336;2023-02-01T04:40:51;0.40;;;0.30;;
3841;SDS011;1936;47.074;15.336;2023-02-01T04:42:54;0.70;;;0.30;;
3841;SDS011;1936;47.074;15.336;2023-02-01T04:44:57;1.00;;;0.47;;
3841;SDS011;1936;47.074;15.336;2023-02-01T04:47:02;0.60;;;0.40;;
3841;SDS011;1936;47.074;15.336;2023-02-01T04:49:05;1.05;;;0.40;;
3841;SDS011;1936;47.074;15.336;2023-02-01T04:51:10;0.70;;;0.40;;
3841;SDS011;1936;47.074;15.336;2023-02-01T04:53:16;0.50;;;0.30;;
3841;SDS011;1936;47.074;15.336;2023-02-01T04:55:20;0.60;;;0.38;;
3841;SDS011;1936;47.074;15.336;2023-02-01T04:57:23;0.98;;;0.85;;
3841;SDS011;1936;47.074;15.336;2023-02-01T04:59:26;0.80;;;0.50;;
3841;SDS011;1936;47.074;15.336;2023-02-01T05:01:30;0.60;;;0.30;;
3841;SDS011;1936;47.074;15.336;2023-02-01T05:03:35;0.75;;;0.40;;
3841;SDS011;1936;47.074;15.336;2023-02-01T05:05:39;7.22;;;2.15;;
3841;SDS011;1936;47.074;15.336;2023-02-01T05:07:42;2.10;;;1.13;;
3841;SDS011;1936;47.074;15.336;2023-02-01T05:09:45;0.47;;;0.40;;
3841;SDS011;1936;47.074;15.336;2023-02-01T05:11:49;0.85;;;0.70;;
3841;SDS011;1936;47.074;15.336;2023-02-01T05:14:10;1.77;;;1.13;;
3841;SDS011;1936;47.074;15.336;2023-02-01T05:16:13;1.27;;;0.70;;
3841;SDS011;1936;47.074;15.336;2023-02-01T05:18:17;4.03;;;2.40;;
3841;SDS011;1936;47.074;15.336;2023-02-01T05:20:22;3.60;;;2.75;;
3841;SDS011;1936;47.074;15.336;2023-02-01T05:22:26;5.85;;;3.25;;
3841;SDS011;1936;47.074;15.336;2023-02-01T05:24:29;3.97;;;3.42;;
3841;SDS011;1936;47.074;15.336;2023-02-01T05:26:33;3.28;;;2.97;;
3841;SDS011;1936;47.074;15.336;2023-02-01T05:28:36;2.85;;;2.08;;
3841;SDS011;1936;47.074;15.336;2023-02-01T05:30:39;2.50;;;2.30;;
3841;SDS011;1936;47.074;15.336;2023-02-01T05:32:43;1.75;;;1.60;;
3841;SDS011;1936;47.074;15.336;2023-02-01T05:34:46;1.65;;;1.55;;
3841;SDS011;1936;47.074;15.336;2023-02-01T05:36:51;0.80;;;0.80;;
3841;SDS011;1936;47.074;15.336;2023-02-01T05:38:54;1.77;;;1.40;;
3841;SDS011;1936;47.074;15.336;2023-02-01T05:40:58;3.20;;;2.05;;
3841;SDS011;1936;47.074;15.336;2023-02-01T05:43:01;1.50;;;0.90;;
3841;SDS011;1936;47.074;15.336;2023-02-01T05:45:05;4.60;;;0.95;;
3841;SDS011;1936;47.074;15.336;2023-02-01T05:47:10;1.15;;;0.77;;
3841;SDS011;1936;47.074;15.336;2023-02-01T05:49:13;2.00;;;1.80;;
3841;SDS011;1936;47.074;15.336;2023-02-01T05:51:17;1.40;;;1.15;;
3841;SDS011;1936;47.074;15.336;2023-02-01T05:53:22;1.45;;;1.15;;
3841;SDS011;1936;47.074;15.336;2023-02-01T05:55:25;2.15;;;1.50;;
3841;SDS011;1936;47.074;15.336;2023-02-01T05:57:28;1.80;;;1.55;;
3841;SDS011;1936;47.074;15.336;2023-02-01T05:59:32;1.60;;;1.50;;
3841;SDS011;1936;47.074;15.336;2023-02-01T06:01:35;1.45;;;1.15;;
3841;SDS011;1936;47.074;15.336;2023-02-01T06:03:39;1.90;;;1.63;;
3841;SDS011;1936;47.074;15.336;2023-02-01T06:05:43;1.20;;;0.93;;
3841;SDS011;1936;47.074;15.336;2023-02-01T06:07:46;1.25;;;1.10;;
3841;SDS011;1936;47.074;15.336;2023-02-01T06:09:52;2.13;;;1.65;;
3841;SDS011;1936;47.074;15.336;2023-02-01T06:11:55;3.10;;;2.83;;
3841;SDS011;1936;47.074;15.336;2023-02-01T06:13:59;2.42;;;1.83;;
3841;SDS011;1936;47.074;15.336;2023-02-01T06:16:02;1.20;;;1.00;;
3841;SDS011;1936;47.074;15.336;2023-02-01T06:18:07;1.40;;;1.30;;
3841;SDS011;1936;47.074;15.336;2023-02-01T06:20:11;1.25;;;1.10;;
3841;SDS011;1936;47.074;15.336;2023-02-01T06:22:16;1.40;;;1.30;;
3841;SDS011;1936;47.074;15.336;2023-02-01T06:24:19;0.95;;;0.90;;
3841;SDS011;1936;47.074;15.336;2023-02-01T06:26:24;0.65;;;0.47;;
3841;SDS011;1936;47.074;15.336;2023-02-01T06:28:30;0.95;;;0.70;;
3841;SDS011;1936;47.074;15.336;2023-02-01T06:30:34;1.73;;;0.85;;
3841;SDS011;1936;47.074;15.336;2023-02-01T06:32:38;1.13;;;0.88;;
3841;SDS011;1936;47.074;15.336;2023-02-01T06:34:41;1.50;;;0.85;;
3841;SDS011;1936;47.074;15.336;2023-02-01T06:36:45;1.20;;;1.05;;
3841;SDS011;1936;47.074;15.336;2023-02-01T06:38:48;1.10;;;1.00;;
3841;SDS011;1936;47.074;15.336;2023-02-01T06:40:52;0.95;;;0.77;;
3841;SDS011;1936;47.074;15.336;2023-02-01T06:42:57;1.65;;;1.30;;
3841;SDS011;1936;47.074;15.336;2023-02-01T06:45:00;3.22;;;2.67;;
3841;SDS011;1936;47.074;15.336;2023-02-01T06:47:04;4.05;;;2.67;;
3841;SDS011;1936;47.074;15.336;2023-02-01T06:49:09;4.30;;;2.95;;
3841;SDS011;1936;47.074;15.336;2023-02-01T06:51:17;3.78;;;2.85;;
3841;SDS011;1936;47.074;15.336;2023-02-01T06:53:23;5.47;;;4.47;;
3841;SDS011;1936;47.074;15.336;2023-02-01T06:55:26;5.45;;;4.95;;
3841;SDS011;1936;47.074;15.336;2023-02-01T06:57:29;7.93;;;6.30;;
3841;SDS011;1936;47.074;15.336;2023-02-01T06:59:36;8.20;;;7.38;;
3841;SDS011;1936;47.074;15.336;2023-02-01T07:01:39;10.13;;;7.57;;
3841;SDS011;1936;47.074;15.336;2023-02-01T07:03:42;11.30;;;6.95;;
3841;SDS011;1936;47.074;15.336;2023-02-01T07:05:53;7.07;;;4.50;;
3841;SDS011;1936;47.074;15.336;2023-02-01T07:07:58;5.15;;;4.20;;
3841;SDS011;1936;47.074;15.336;2023-02-01T07:10:01;3.45;;;3.10;;
3841;SDS011;1936;47.074;15.336;2023-02-01T07:12:05;3.80;;;3.30;;
3841;SDS011;1936;47.074;15.336;2023-02-01T07:14:09;4.35;;;3.35;;
3841;SDS011;1936;47.074;15.336;2023-02-01T07:16:14;2.05;;;1.95;;
3841;SDS011;1936;47.074;15.336;2023-02-01T07:18:19;1.73;;;1.60;;
3841;SDS011;1936;47.074;15.336;2023-02-01T07:20:22;2.05;;;1.85;;
3841;SDS011;1936;47.074;15.336;2023-02-01T07:22:26;3.83;;;2.40;;
3841;SDS011;1936;47.074;15.336;2023-02-01T07:24:29;2.03;;;1.92;;
3841;SDS011;1936;47.074;15.336;2023-02-01T07:26:33;2.38;;;2.17;;
3841;SDS011;1936;47.074;15.336;2023-02-01T07:28:36;2.40;;;2.15;;
3841;SDS011;1936;47.074;15.336;2023-02-01T07:30:40;3.60;;;2.45;;
3841;SDS011;1936;47.074;15.336;2023-02-01T07:32:45;4.80;;;3.00;;
3841;SDS011;1936;47.074;15.336;2023-02-01T09:10:38;5.40;;;4.57;;
3841;SDS011;1936;47.074;15.336;2023-02-01T09:12:42;5.10;;;4.37;;
3841;SDS011;1936;47.074;15.336;2023-02-01T09:14:45;4.87;;;3.73;;
3841;SDS011;1936;47.074;15.336;2023-02-01T09:16:49;4.87;;;4.20;;
3841;SDS011;1936;47.074;15.336;2023-02-01T09:18:53;5.13;;;4.03;;
3841;SDS011;1936;47.074;15.336;2023-02-01T09:21:16;6.13;;;5.03;;
3841;SDS011;1936;47.074;15.336;2023-02-01T09:23:20;7.17;;;4.43;;
3841;SDS011;1936;47.074;15.336;2023-02-01T09:25:24;4.83;;;3.47;;
3841;SDS011;1936;47.074;15.336;2023-02-01T09:27:29;3.77;;;3.47;;
3841;SDS011;1936;47.074;15.336;2023-02-01T09:29:32;4.10;;;3.70;;
3841;SDS011;1936;47.074;15.336;2023-02-01T09:31:36;3.67;;;2.80;;
3841;SDS011;1936;47.074;15.336;2023-02-01T09:33:44;9.30;;;8.20;;
3841;SDS011;1936;47.074;15.336;2023-02-01T09:35:48;6.83;;;6.20;;
3841;SDS011;1936;47.074;15.336;2023-02-01T09:37:51;5.57;;;5.07;;
3841;SDS011;1936;47.074;15.336;2023-02-01T09:39:55;2.97;;;2.53;;
3841;SDS011;1936;47.074;15.336;2023-02-01T09:42:00;3.27;;;2.97;;
3841;SDS011;1936;47.074;15.336;2023-02-01T09:44:10;2.27;;;2.07;;
3841;SDS011;1936;47.074;15.336;2023-02-01T09:46:21;2.50;;;1.90;;
3841;SDS011;1936;47.074;15.336;2023-02-01T09:48:28;1.70;;;1.60;;
3841;SDS011;1936;47.074;15.336;2023-02-01T09:50:33;2.03;;;1.83;;
3841;SDS011;1936;47.074;15.336;2023-02-01T09:52:40;2.80;;;1.60;;
3841;SDS011;1936;47.074;15.336;2023-02-01T09:54:47;2.00;;;1.53;;
3841;SDS011;1936;47.074;15.336;2023-02-01T09:56:53;1.60;;;1.50;;
3841;SDS011;1936;47.074;15.336;2023-02-01T09:58:59;1.23;;;0.90;;
3841;SDS011;1936;47.074;15.336;2023-02-01T10:01:10;2.50;;;1.30;;
3841;SDS011;1936;47.074;15.336;2023-02-01T10:03:18;2.60;;;1.67;;
3841;SDS011;1936;47.074;15.336;2023-02-01T10:05:24;1.87;;;1.67;;
3841;SDS011;1936;47.074;15.336;2023-02-01T10:07:33;3.40;;;2.23;;
3841;SDS011;1936;47.074;15.336;2023-02-01T10:09:49;4.07;;;2.67;;
3841;SDS011;1936;47.074;15.336;2023-02-01T10:12:00;4.17;;;3.73;;
3841;SDS011;1936;47.074;15.336;2023-02-01T10:14:09;3.73;;;3.43;;
3841;SDS011;1936;47.074;15.336;2023-02-01T10:16:22;4.03;;;3.60;;
3841;SDS011;1936;47.074;15.336;2023-02-01T10:18:35;3.30;;;2.60;;
3841;SDS011;1936;47.074;15.336;2023-02-01T10:20:44;2.47;;;2.27;;
3841;SDS011;1936;47.074;15.336;2023-02-01T10:22:51;1.63;;;0.93;;
3841;SDS011;1936;47.074;15.336;2023-02-01T10:25:19;1.47;;;0.80;;
3841;SDS011;1936;47.074;15.336;2023-02-01T10:27:25;1.87;;;0.70;;
3841;SDS011;1936;47.074;15.336;2023-02-01T10:29:32;1.10;;;0.70;;
3841;SDS011;1936;47.074;15.336;2023-02-01T10:31:39;1.37;;;0.90;;
3841;SDS011;1936;47.074;15.336;2023-02-01T10:33:44;1.00;;;0.53;;
3841;SDS011;1936;47.074;15.336;2023-02-01T10:35:49;1.30;;;0.70;;
3841;SDS011;1936;47.074;15.336;2023-02-01T10:37:58;3.13;;;1.00;;
3841;SDS011;1936;47.074;15.336;2023-02-01T10:40:15;6.00;;;1.10;;
3841;SDS011;1936;47.074;15.336;2023-02-01T10:42:23;1.37;;;1.27;;
3841;SDS011;1936;47.074;15.336;2023-02-01T10:44:27;1.20;;;1.10;;
3841;SDS011;1936;47.074;15.336;2023-02-01T10:46:34;1.50;;;1.20;;
3841;SDS011;1936;47.074;15.336;2023-02-01T10:48:39;1.50;;;1.20;;
3841;SDS011;1936;47.074;15.336;2023-02-01T10:50:44;1.50;;;1.30;;
3841;SDS011;1936;47.074;15.336;2023-02-01T10:52:56;1.93;;;1.30;;
3841;SDS011;1936;47.074;15.336;2023-02-01T10:57:48;7.33;;;1.50;;
3841;SDS011;1936;47.074;15.336;2023-02-01T10:59:58;2.17;;;1.57;;
3841;SDS011;1936;47.074;15.336;2023-02-01T11:02:14;1.87;;;1.30;;
3841;SDS011;1936;47.074;15.336;2023-02-01T11:04:23;2.00;;;1.33;;
3841;SDS011;1936;47.074;15.336;2023-02-01T11:06:30;2.53;;;1.20;;
3841;SDS011;1936;47.074;15.336;2023-02-01T11:08:41;6.90;;;1.77;;
3841;SDS011;1936;47.074;15.336;2023-02-01T11:10:46;3.17;;;1.40;;
3841;SDS011;1936;47.074;15.336;2023-02-01T11:12:59;7.13;;;1.17;;
3841;SDS011;1936;47.074;15.336;2023-02-01T11:15:13;2.17;;;0.90;;
3841;SDS011;1936;47.074;15.336;2023-02-01T11:17:23;1.70;;;1.03;;
3841;SDS011;1936;47.074;15.336;2023-02-01T11:19:31;0.90;;;0.57;;
3841;SDS011;1936;47.074;15.336;2023-02-01T11:21:34;1.07;;;0.67;;
3841;SDS011;1936;47.074;15.336;2023-02-01T11:23:40;1.33;;;0.67;;
3841;SDS011;1936;47.074;15.336;2023-02-01T11:25:47;0.80;;;0.50;;
3841;SDS011;1936;47.074;15.336;2023-02-01T11:27:53;0.60;;;0.40;;
3841;SDS011;1936;47.074;15.336;2023-02-01T11:29:58;0.70;;;0.50;;
3841;SDS011;1936;47.074;15.336;2023-02-01T11:32:03;3.23;;;0.70;;
3841;SDS011;1936;47.074;15.336;2023-02-01T11:34:08;1.13;;;0.60;;
3841;SDS011;1936;47.074;15.336;2023-02-01T11:36:17;0.80;;;0.40;;
3841;SDS011;1936;47.074;15.336;2023-02-01T11:38:26;1.23;;;0.50;;
3841;SDS011;1936;47.074;15.336;2023-02-01T11:40:34;1.00;;;0.60;;
3841;SDS011;1936;47.074;15.336;2023-02-01T11:42:38;0.80;;;0.40;;
3841;SDS011;1936;47.074;15.336;2023-02-01T11:45:13;0.93;;;0.43;;
3841;SDS011;1936;47.074;15.336;2023-02-01T11:47:22;0.90;;;0.40;;
3841;SDS011;1936;47.074;15.336;2023-02-01T11:49:27;0.60;;;0.40;;
3841;SDS011;1936;47.074;15.336;2023-02-01T11:51:37;3.70;;;0.50;;
3841;SDS011;1936;47.074;15.336;2023-02-01T11:54:03;0.60;;;0.30;;
3841;SDS011;1936;47.074;15.336;2023-02-01T11:56:29;0.70;;;0.40;;
3841;SDS011;1936;47.074;15.336;2023-02-01T12:01:13;0.70;;;0.40;;
3841;SDS011;1936;47.074;15.336;2023-02-01T12:03:31;0.90;;;0.50;;
3841;SDS011;1936;47.074;15.336;2023-02-01T12:06:00;0.90;;;0.40;;
3841;SDS011;1936;47.074;15.336;2023-02-01T12:08:22;0.70;;;0.40;;
3841;SDS011;1936;47.074;15.336;2023-02-01T12:10:41;1.07;;;0.40;;
3841;SDS011;1936;47.074;15.336;2023-02-01T12:12:57;5.90;;;0.53;;
3841;SDS011;1936;47.074;15.336;2023-02-01T12:15:15;0.70;;;0.40;;
3841;SDS011;1936;47.074;15.336;2023-02-01T12:17:34;1.73;;;0.57;;
3841;SDS011;1936;47.074;15.336;2023-02-01T12:19:55;0.70;;;0.40;;
3841;SDS011;1936;47.074;15.336;2023-02-01T12:22:20;0.60;;;0.40;;
3841;SDS011;1936;47.074;15.336;2023-02-01T12:24:49;0.80;;;0.40;;
3841;SDS011;1936;47.074;15.336;2023-02-01T12:27:07;0.80;;;0.50;;
3841;SDS011;1936;47.074;15.336;2023-02-01T12:29:35;1.67;;;0.50;;
3841;SDS011;1936;47.074;15.336;2023-02-01T12:31:59;1.03;;;0.70;;
3841;SDS011;1936;47.074;15.336;2023-02-01T12:34:19;1.60;;;0.80;;
3841;SDS011;1936;47.074;15.336;2023-02-01T12:36:43;3.00;;;1.10;;
3841;SDS011;1936;47.074;15.336;2023-02-01T12:38:53;0.70;;;0.50;;
3841;SDS011;1936;47.074;15.336;2023-02-01T12:41:09;0.93;;;0.40;;
3841;SDS011;1936;47.074;15.336;2023-02-01T12:43:36;2.67;;;0.90;;
3841;SDS011;1936;47.074;15.336;2023-02-01T12:45:46;0.90;;;0.47;;
3841;SDS011;1936;47.074;15.336;2023-02-01T12:47:55;1.37;;;0.60;;
3841;SDS011;1936;47.074;15.336;2023-02-01T12:50:04;1.10;;;0.50;;
3841;SDS011;1936;47.074;15.336;2023-02-01T12:52:16;1.00;;;0.60;;
3841;SDS011;1936;47.074;15.336;2023-02-01T12:54:27;2.20;;;0.70;;
3841;SDS011;1936;47.074;15.336;2023-02-01T12:56:38;0.80;;;0.50;;
3841;SDS011;1936;47.074;15.336;2023-02-01T12:58:46;0.80;;;0.57;;
3841;SDS011;1936;47.074;15.336;2023-02-01T13:00:54;0.80;;;0.50;;
3841;SDS011;1936;47.074;15.336;2023-02-01T13:03:04;1.47;;;0.60;;
3841;SDS011;1936;47.074;15.336;2023-02-01T13:05:16;1.43;;;0.40;;
3841;SDS011;1936;47.074;15.336;2023-02-01T13:07:22;0.80;;;0.50;;
3841;SDS011;1936;47.074;15.336;2023-02-01T13:09:31;0.80;;;0.50;;
3841;SDS011;1936;47.074;15.336;2023-02-01T13:11:43;1.77;;;0.63;;
3841;SDS011;1936;47.074;15.336;2023-02-01T13:13:52;1.13;;;0.83;;
3841;SDS011;1936;47.074;15.336;2023-02-01T13:16:06;0.60;;;0.30;;
3841;SDS011;1936;47.074;15.336;2023-02-01T13:18:20;0.77;;;0.60;;
3841;SDS011;1936;47.074;15.336;2023-02-01T13:20:29;0.90;;;0.70;;
3841;SDS011;1936;47.074;15.336;2023-02-01T13:22:36;1.03;;;0.50;;
3841;SDS011;1936;47.074;15.336;2023-02-01T13:24:43;4.40;;;0.60;;
3841;SDS011;1936;47.074;15.336;2023-02-01T13:26:51;1.57;;;0.50;;
3841;SDS011;1936;47.074;15.336;2023-02-01T13:28:57;0.70;;;0.40;;
3841;SDS011;1936;47.074;15.336;2023-02-01T13:31:08;0.90;;;0.53;;
3841;SDS011;1936;47.074;15.336;2023-02-01T13:33:38;1.17;;;0.50;;
3841;SDS011;1936;47.074;15.336;2023-02-01T13:36:10;1.20;;;0.50;;
3841;SDS011;1936;47.074;15.336;2023-02-01T13:38:37;0.70;;;0.40;;
3841;SDS011;1936;47.074;15.336;2023-02-01T13:41:04;1.20;;;0.43;;
3841;SDS011;1936;47.074;15.336;2023-02-01T13:43:19;1.00;;;0.40;;
3841;SDS011;1936;47.074;15.336;2023-02-01T13:45:26;0.77;;;0.60;;
3841;SDS011;1936;47.074;15.336;2023-02-01T13:47:33;0.80;;;0.30;;
3841;SDS011;1936;47.074;15.336;2023-02-01T13:49:41;1.10;;;0.43;;
3841;SDS011;1936;47.074;15.336;2023-02-01T13:51:45;0.93;;;0.50;;
3841;SDS011;1936;47.074;15.336;2023-02-01T13:53:51;0.60;;;0.40;;
3841;SDS011;1936;47.074;15.336;2023-02-01T13:55:57;0.80;;;0.40;;
3841;SDS011;1936;47.074;15.336;2023-02-01T13:58:14;1.20;;;0.40;;
3841;SDS011;1936;47.074;15.336;2023-02-01T14:00:26;0.70;;;0.40;;
3841;SDS011;1936;47.074;15.336;2023-02-01T14:08:02;1.73;;;0.50;;
3841;SDS011;1936;47.074;15.336;2023-02-01T14:12:49;0.60;;;0.40;;
3841;SDS011;1936;47.074;15.336;2023-02-01T14:14:53;0.60;;;0.40;;
3841;SDS011;1936;47.074;15.336;2023-02-01T14:19:37;1.10;;;0.40;;
3841;SDS011;1936;47.074;15.336;2023-02-01T14:21:46;1.00;;;0.60;;
3841;SDS011;1936;47.074;15.336;2023-02-01T14:23:55;1.20;;;0.77;;
3841;SDS011;1936;47.074;15.336;2023-02-01T14:26:08;1.53;;;0.50;;
3841;SDS011;1936;47.074;15.336;2023-02-01T14:28:22;2.07;;;0.60;;
3841;SDS011;1936;47.074;15.336;2023-02-01T14:30:27;2.20;;;0.40;;
3841;SDS011;1936;47.074;15.336;2023-02-01T14:32:31;1.03;;;0.60;;
3841;SDS011;1936;47.074;15.336;2023-02-01T14:34:48;0.80;;;0.50;;
3841;SDS011;1936;47.074;15.336;2023-02-01T14:36:56;2.00;;;0.50;;
3841;SDS011;1936;47.074;15.336;2023-02-01T14:39:01;0.87;;;0.50;;
3841;SDS011;1936;47.074;15.336;2023-02-01T14:44:12;4.37;;;0.70;;
3841;SDS011;1936;47.074;15.336;2023-02-01T14:49:06;0.70;;;0.40;;
3841;SDS011;1936;47.074;15.336;2023-02-01T14:51:10;0.97;;;0.50;;
3841;SDS011;1936;47.074;15.336;2023-02-01T14:53:18;1.37;;;0.80;;
3841;SDS011;1936;47.074;15.336;2023-02-01T14:55:25;4.43;;;0.87;;
3841;SDS011;1936;47.074;15.336;2023-02-01T14:57:34;1.00;;;0.53;;
3841;SDS011;1936;47.074;15.336;2023-02-01T14:59:40;0.70;;;0.50;;
3841;SDS011;1936;47.074;15.336;2023-02-01T15:01:47;1.40;;;0.70;;
3841;SDS011;1936;47.074;15.336;2023-02-01T15:03:56;6.43;;;0.50;;
3841;SDS011;1936;47.074;15.336;2023-02-01T15:06:12;1.20;;;0.60;;
3841;SDS011;1936;47.074;15.336;2023-02-01T15:08:28;0.80;;;0.50;;